createdAt,value
2022-10-11T00:00:33.010Z,88.90
2022-10-11T00:03:02.564Z,88.50
2022-10-11T00:05:30.152Z,88.10
2022-10-11T00:07:57.986Z,87.90
2022-10-11T00:10:26.681Z,87.50
2022-10-11T00:12:54.116Z,87.80
2022-10-11T00:15:27.962Z,90.80
2022-10-11T00:17:56.769Z,90.40
2022-10-11T00:20:30.440Z,89.60
2022-10-11T00:22:58.051Z,86.40
2022-10-11T00:25:26.701Z,86.10
2022-10-11T00:27:55.640Z,86.50
2022-10-11T00:30:26.031Z,87.00
2022-10-11T00:32:56.681Z,86.50
2022-10-11T00:35:24.421Z,84.10
2022-10-11T00:37:52.025Z,86.00
2022-10-11T00:40:21.571Z,86.30
2022-10-11T00:42:48.863Z,86.50
2022-10-11T00:46:00.255Z,85.10
2022-10-11T00:48:47.869Z,85.00
2022-10-11T00:51:20.384Z,84.70
2022-10-11T00:53:50.314Z,85.60
2022-10-11T00:56:28.168Z,85.00
2022-10-11T00:58:57.981Z,84.80
2022-10-11T01:01:25.717Z,84.30
2022-10-11T01:03:57.409Z,84.80
2022-10-11T01:06:25.556Z,84.40
2022-10-11T01:08:55.090Z,84.20
2022-10-11T01:11:26.090Z,83.60
2022-10-11T01:14:00.009Z,83.20
2022-10-11T01:16:42.873Z,83.90
2022-10-11T01:19:37.744Z,86.60
2022-10-11T01:22:58.761Z,89.60
2022-10-11T01:25:47.341Z,91.60
2022-10-11T01:28:35.619Z,91.70
2022-10-11T01:31:16.086Z,88.40
2022-10-11T01:34:19.945Z,90.50
2022-10-11T01:37:11.925Z,89.30
2022-10-11T01:39:50.753Z,89.10
2022-10-11T01:42:19.948Z,88.60
2022-10-11T01:44:49.171Z,87.50
2022-10-11T01:47:24.222Z,86.70
2022-10-11T01:50:08.208Z,86.90
2022-10-11T01:52:57.114Z,87.70
2022-10-11T01:55:34.519Z,88.10
2022-10-11T01:58:14.680Z,87.50
2022-10-11T02:01:15.180Z,86.70
2022-10-11T02:04:29.710Z,85.80
2022-10-11T02:06:59.729Z,84.50
2022-10-11T02:09:56.958Z,83.80
2022-10-11T02:12:30.616Z,83.40
2022-10-11T02:15:00.158Z,83.30
2022-10-11T02:17:33.876Z,83.50
2022-10-11T02:20:09.330Z,83.00
2022-10-11T02:22:39.114Z,84.00
2022-10-11T02:25:14.187Z,86.60
2022-10-11T02:27:42.269Z,87.50
2022-10-11T02:30:11.150Z,88.80
2022-10-11T02:32:41.976Z,88.90
2022-10-11T02:35:11.733Z,90.00
2022-10-11T02:37:45.021Z,90.10
2022-10-11T02:40:36.194Z,89.70
2022-10-11T02:43:25.484Z,88.20
2022-10-11T02:45:59.926Z,87.60
2022-10-11T02:48:29.620Z,86.60
2022-10-11T02:50:58.714Z,86.60
2022-10-11T02:53:27.253Z,87.90
2022-10-11T02:55:57.041Z,88.20
2022-10-11T02:58:28.163Z,89.20
2022-10-11T03:00:59.150Z,89.10
2022-10-11T03:03:27.113Z,88.40
2022-10-11T03:06:05.365Z,88.00
2022-10-11T03:08:32.995Z,87.00
2022-10-11T03:11:00.534Z,86.00
2022-10-11T03:13:27.909Z,85.70
2022-10-11T03:16:03.363Z,86.30
2022-10-11T03:18:31.723Z,87.50
2022-10-11T03:20:59.015Z,88.20
2022-10-11T03:23:26.447Z,87.50
2022-10-11T03:25:53.970Z,87.10
2022-10-11T03:28:21.748Z,85.70
2022-10-11T03:30:51.296Z,84.60
2022-10-11T03:33:19.696Z,84.70
2022-10-11T03:35:48.636Z,86.60
2022-10-11T03:38:22.117Z,87.90
2022-10-11T03:40:51.050Z,87.90
2022-10-11T03:43:18.522Z,87.90
2022-10-11T03:45:48.062Z,87.20
2022-10-11T03:48:15.822Z,86.70
2022-10-11T03:50:43.253Z,85.70
2022-10-11T03:53:11.927Z,84.00
2022-10-11T03:55:43.182Z,85.90
2022-10-11T03:58:10.581Z,88.00
2022-10-11T04:00:41.524Z,91.00
2022-10-11T04:03:09.922Z,92.50
2022-10-11T04:05:37.349Z,93.30
2022-10-11T04:08:08.489Z,93.20
2022-10-11T04:10:41.180Z,91.90
2022-10-11T04:13:09.933Z,90.60
2022-10-11T04:15:43.064Z,89.00
2022-10-11T04:18:11.108Z,88.20
2022-10-11T04:20:38.459Z,88.70
2022-10-11T04:23:05.866Z,89.20
2022-10-11T04:25:33.226Z,86.70
2022-10-11T04:28:00.621Z,87.50
2022-10-11T04:30:30.669Z,89.70
2022-10-11T04:32:58.471Z,90.40
2022-10-11T04:35:25.680Z,90.40
2022-10-11T04:37:53.207Z,89.10
2022-10-11T04:40:21.356Z,89.60
2022-10-11T04:42:51.355Z,89.00
2022-10-11T04:45:25.987Z,88.20
2022-10-11T04:47:55.108Z,87.70
2022-10-11T04:50:23.253Z,86.70
2022-10-11T04:52:51.393Z,85.20
2022-10-11T04:55:18.872Z,86.50
2022-10-11T04:57:46.805Z,86.70
2022-10-11T05:00:14.612Z,86.50
2022-10-11T05:02:42.583Z,87.20
2022-10-11T05:05:10.450Z,86.60
2022-10-11T05:07:37.747Z,86.30
2022-10-11T05:10:06.604Z,85.10
2022-10-11T05:12:33.972Z,84.20
2022-10-11T05:15:01.285Z,85.00
2022-10-11T05:17:28.799Z,85.90
2022-10-11T05:19:56.117Z,86.00
2022-10-11T05:22:24.011Z,86.40
2022-10-11T05:24:51.616Z,87.20
2022-10-11T05:27:19.590Z,86.90
2022-10-11T05:29:47.171Z,86.70
2022-10-11T05:32:14.773Z,86.80
2022-10-11T05:34:43.116Z,86.40
2022-10-11T05:37:10.661Z,86.30
2022-10-11T05:39:39.722Z,85.90
2022-10-11T05:42:09.942Z,85.20
2022-10-11T05:44:38.086Z,84.50
2022-10-11T05:47:05.542Z,85.50
2022-10-11T05:49:32.944Z,87.00
2022-10-11T05:52:00.239Z,87.80
2022-10-11T05:54:31.148Z,87.70
2022-10-11T05:56:58.481Z,88.00
2022-10-11T05:59:25.723Z,87.70
2022-10-11T06:01:53.450Z,88.10
2022-10-11T06:04:21.623Z,88.10
2022-10-11T06:06:48.981Z,87.30
2022-10-11T06:09:16.253Z,86.50
2022-10-11T06:11:44.330Z,86.30
2022-10-11T06:14:11.803Z,84.90
2022-10-11T06:16:39.135Z,84.70
2022-10-11T06:19:06.423Z,85.50
2022-10-11T06:21:33.789Z,85.50
2022-10-11T06:24:02.236Z,85.70
2022-10-11T06:26:30.331Z,84.70
2022-10-11T06:29:00.181Z,84.90
2022-10-11T06:31:27.634Z,85.40
2022-10-11T06:33:55.046Z,85.40
2022-10-11T06:36:22.835Z,86.60
2022-10-11T06:38:53.109Z,85.50
2022-10-11T06:41:24.697Z,85.70
2022-10-11T06:43:53.280Z,87.10
2022-10-11T06:46:23.050Z,86.40
2022-10-11T06:48:52.090Z,84.40
2022-10-11T06:51:22.923Z,84.30
2022-10-11T06:53:57.048Z,84.00
2022-10-11T06:56:26.641Z,83.00
2022-10-11T06:58:55.185Z,82.90
2022-10-11T07:01:26.821Z,82.40
2022-10-11T07:03:56.624Z,82.40
2022-10-11T07:06:26.671Z,81.70
2022-10-11T07:08:55.753Z,82.40
2022-10-11T07:11:26.957Z,82.70
2022-10-11T07:13:57.390Z,81.90
2022-10-11T07:16:25.678Z,81.80
2022-10-11T07:19:00.275Z,81.40
2022-10-11T07:21:29.715Z,82.00
2022-10-11T07:23:57.302Z,81.40
2022-10-11T07:26:24.695Z,80.90
2022-10-11T07:28:52.981Z,80.80
2022-10-11T07:31:24.905Z,80.70
2022-10-11T07:33:53.782Z,80.40
2022-10-11T07:36:23.509Z,80.20
2022-10-11T07:38:51.544Z,80.20
2022-10-11T07:41:19.669Z,79.90
2022-10-11T07:43:50.402Z,80.70
2022-10-11T07:46:19.251Z,82.00
2022-10-11T07:48:46.906Z,82.50
2022-10-11T07:51:17.351Z,81.90
2022-10-11T07:53:47.857Z,82.10
2022-10-11T07:56:16.270Z,79.60
2022-10-11T07:58:44.189Z,78.60
2022-10-11T08:01:12.398Z,78.30
2022-10-11T08:03:39.744Z,78.70
2022-10-11T08:06:09.948Z,78.70
2022-10-11T08:08:37.886Z,79.20
2022-10-11T08:11:06.117Z,79.40
2022-10-11T08:13:35.532Z,78.50
2022-10-11T08:16:11.248Z,78.10
2022-10-11T08:18:38.786Z,77.10
2022-10-11T08:21:08.285Z,75.30
2022-10-11T08:23:35.740Z,75.40
2022-10-11T08:26:03.810Z,73.30
2022-10-11T08:28:32.025Z,72.90
2022-10-11T08:30:59.377Z,72.10
2022-10-11T08:33:27.119Z,72.70
2022-10-11T08:35:57.185Z,73.20
2022-10-11T08:38:25.119Z,73.10
2022-10-11T08:40:57.099Z,73.80
2022-10-11T08:43:42.170Z,73.50
2022-10-11T08:46:11.964Z,71.60
2022-10-11T08:48:45.055Z,72.20
2022-10-11T08:51:27.093Z,70.30
2022-10-11T08:54:04.743Z,70.80
2022-10-11T08:56:37.936Z,70.50
2022-10-11T08:59:33.033Z,69.70
2022-10-11T09:02:23.811Z,69.50
2022-10-11T09:04:55.503Z,69.40
2022-10-11T09:07:30.587Z,69.80
2022-10-11T09:09:57.897Z,69.20
2022-10-11T09:12:40.673Z,69.50
2022-10-11T09:15:10.805Z,68.60
2022-10-11T09:17:56.790Z,66.60
2022-10-11T09:20:51.979Z,65.40
2022-10-11T09:23:47.048Z,66.60
2022-10-11T09:26:23.238Z,65.80
2022-10-11T09:29:04.005Z,66.90
2022-10-11T09:31:32.731Z,63.70
2022-10-11T09:34:10.483Z,61.90
2022-10-11T09:36:55.344Z,62.60
2022-10-11T09:39:28.989Z,63.60
2022-10-11T09:42:08.972Z,63.40
2022-10-11T09:44:50.614Z,63.50
2022-10-11T09:47:24.737Z,63.10
2022-10-11T09:49:59.421Z,62.30
2022-10-11T09:52:27.363Z,61.30
2022-10-11T09:54:58.101Z,62.00
2022-10-11T09:57:31.160Z,64.40
2022-10-11T10:00:24.608Z,61.80
2022-10-11T10:02:59.189Z,61.60
2022-10-11T10:05:32.198Z,62.90
2022-10-11T10:08:24.492Z,60.00
2022-10-11T10:11:02.227Z,58.50
2022-10-11T10:13:35.647Z,57.80
2022-10-11T10:16:04.526Z,58.30
2022-10-11T10:18:39.607Z,59.00
2022-10-11T10:21:14.084Z,62.40
2022-10-11T10:23:42.469Z,59.20
2022-10-11T10:26:20.931Z,59.30
2022-10-11T10:29:16.541Z,59.70
2022-10-11T10:32:12.870Z,59.20
2022-10-11T10:34:41.787Z,58.10
2022-10-11T10:37:30.158Z,56.50
2022-10-11T10:40:38.086Z,55.40
2022-10-11T10:43:05.864Z,57.40
2022-10-11T10:45:58.614Z,59.20
2022-10-11T10:49:11.785Z,59.00
2022-10-11T10:51:54.279Z,60.10
2022-10-11T10:54:36.551Z,59.90
2022-10-11T10:57:13.918Z,60.70
2022-10-11T11:00:14.713Z,60.50
2022-10-11T11:02:59.023Z,61.30
2022-10-11T11:05:46.017Z,61.00
2022-10-11T11:08:20.652Z,62.50
2022-10-11T11:10:56.224Z,63.40
2022-10-11T11:13:58.675Z,61.10
2022-10-11T11:17:09.400Z,61.80
2022-10-11T11:20:00.802Z,62.70
2022-10-11T11:22:37.440Z,62.80
2022-10-11T11:25:45.143Z,60.50
2022-10-11T11:28:40.444Z,60.40
2022-10-11T11:31:32.700Z,60.70
2022-10-11T11:33:59.911Z,60.40
2022-10-11T11:36:43.792Z,61.50
2022-10-11T11:39:22.522Z,60.40
2022-10-11T11:41:49.926Z,61.60
2022-10-11T11:44:48.320Z,62.30
2022-10-11T11:47:22.882Z,63.90
2022-10-11T11:50:04.143Z,63.80
2022-10-11T11:52:36.243Z,65.40
2022-10-11T11:55:13.617Z,67.00
2022-10-11T11:57:52.209Z,69.20
2022-10-11T12:01:01.878Z,69.40
2022-10-11T12:03:41.623Z,69.20
2022-10-11T12:06:15.285Z,69.00
2022-10-11T12:08:58.182Z,69.90
2022-10-11T12:11:33.145Z,70.10
2022-10-11T12:14:38.129Z,69.50
2022-10-11T12:17:19.020Z,69.20
2022-10-11T12:20:14.878Z,70.70
2022-10-11T12:22:52.638Z,69.50
2022-10-11T12:25:26.364Z,66.90
2022-10-11T12:28:00.445Z,66.60
2022-10-11T12:30:48.544Z,66.00
2022-10-11T12:33:18.888Z,66.50
2022-10-11T12:35:56.811Z,65.00
2022-10-11T12:38:35.497Z,65.70
2022-10-11T12:41:13.596Z,66.00
2022-10-11T12:43:49.769Z,65.60
2022-10-11T12:46:29.295Z,64.70
2022-10-11T12:49:19.100Z,62.90
2022-10-11T12:52:26.725Z,60.90
2022-10-11T12:54:57.114Z,59.90
2022-10-11T12:57:40.470Z,60.10
2022-10-11T13:00:36.742Z,61.20
2022-10-11T13:03:31.196Z,60.30
2022-10-11T13:06:09.891Z,58.70
2022-10-11T13:08:43.439Z,59.10
2022-10-11T13:11:18.718Z,60.30
2022-10-11T13:13:55.815Z,60.20
2022-10-11T13:17:11.817Z,60.50
2022-10-11T13:22:36.750Z,62.50
2022-10-11T13:25:13.036Z,63.10
2022-10-11T13:27:40.567Z,64.40
2022-10-11T13:30:18.213Z,64.50
2022-10-11T13:32:47.630Z,66.20
2022-10-11T13:35:35.637Z,66.80
2022-10-11T13:38:03.427Z,65.40
2022-10-11T13:40:31.978Z,64.00
2022-10-11T13:43:00.129Z,66.20
2022-10-11T13:45:39.484Z,66.90
2022-10-11T13:48:16.162Z,66.30
2022-10-11T13:51:05.007Z,66.00
2022-10-11T13:53:32.512Z,66.00
2022-10-11T13:56:04.370Z,65.20
2022-10-11T13:58:45.329Z,65.00
2022-10-11T14:01:18.917Z,64.60
2022-10-11T14:03:50.155Z,65.60
2022-10-11T14:06:17.554Z,65.90
2022-10-11T14:08:46.812Z,65.70
2022-10-11T14:11:16.126Z,65.30
2022-10-11T14:13:46.198Z,65.80
2022-10-11T14:16:28.308Z,66.70
2022-10-11T14:18:58.593Z,67.30
2022-10-11T14:21:45.939Z,67.70
2022-10-11T14:24:14.758Z,68.60
2022-10-11T14:26:44.975Z,69.40
2022-10-11T14:29:28.774Z,70.80
2022-10-11T14:32:21.064Z,68.70
2022-10-11T14:34:49.574Z,68.60
2022-10-11T14:37:18.236Z,68.20
2022-10-11T14:39:48.057Z,68.90
2022-10-11T14:42:15.902Z,69.30
2022-10-11T14:44:44.354Z,69.30
2022-10-11T14:47:24.759Z,69.80
2022-10-11T14:49:52.033Z,69.10
2022-10-11T14:52:19.287Z,70.20
2022-10-11T14:54:46.654Z,69.40
2022-10-11T14:57:14.010Z,69.70
2022-10-11T14:59:41.365Z,68.40
2022-10-11T15:02:12.590Z,68.20
2022-10-11T15:04:39.979Z,71.10
2022-10-11T15:07:07.474Z,70.70
2022-10-11T15:09:34.841Z,69.90
2022-10-11T15:12:02.179Z,69.30
2022-10-11T15:14:29.523Z,71.50
2022-10-11T15:16:57.417Z,70.90
2022-10-11T15:19:26.154Z,72.40
2022-10-11T15:21:53.602Z,71.40
2022-10-11T15:24:21.034Z,72.60
2022-10-11T15:26:49.308Z,73.30
2022-10-11T15:29:22.168Z,72.60
2022-10-11T15:31:50.058Z,72.60
2022-10-11T15:34:17.706Z,73.50
2022-10-11T15:36:45.625Z,73.20
2022-10-11T15:39:42.227Z,72.30
2022-10-11T15:42:09.610Z,71.50
2022-10-11T15:44:36.911Z,71.90
2022-10-11T15:47:04.269Z,73.00
2022-10-11T15:49:31.655Z,73.10
2022-10-11T15:51:59.279Z,73.40
2022-10-11T15:54:27.396Z,74.70
2022-10-11T15:56:55.508Z,75.70
2022-10-11T15:59:22.857Z,76.90
2022-10-11T16:01:50.260Z,77.50
2022-10-11T16:04:17.654Z,78.60
2022-10-11T16:06:44.843Z,79.00
2022-10-11T16:09:12.207Z,79.10
2022-10-11T16:11:39.865Z,78.80
2022-10-11T16:14:07.323Z,78.70
2022-10-11T16:16:34.609Z,77.30
2022-10-11T16:19:02.087Z,77.10
2022-10-11T16:21:29.531Z,76.70
2022-10-11T16:23:57.497Z,76.00
2022-10-11T16:26:24.760Z,75.20
2022-10-11T16:28:52.460Z,74.30
2022-10-11T16:31:21.119Z,75.90
2022-10-11T16:33:49.004Z,76.80
2022-10-11T16:36:37.081Z,77.00
2022-10-11T16:39:08.105Z,77.10
2022-10-11T16:41:35.615Z,76.20
2022-10-11T16:44:03.079Z,77.70
2022-10-11T16:46:32.769Z,79.20
2022-10-11T16:49:00.195Z,79.20
2022-10-11T16:51:27.696Z,79.30
2022-10-11T16:53:55.110Z,79.70
2022-10-11T16:56:25.254Z,79.60
2022-10-11T16:58:54.699Z,79.80
2022-10-11T17:01:22.528Z,80.10
2022-10-11T17:03:50.925Z,79.70
2022-10-11T17:06:19.663Z,79.00
2022-10-11T17:08:47.080Z,78.60
2022-10-11T17:11:14.801Z,77.00
2022-10-11T17:13:42.075Z,76.80
2022-10-11T17:16:09.816Z,76.70
2022-10-11T17:18:37.687Z,77.20
2022-10-11T17:21:11.828Z,76.00
2022-10-11T17:23:39.847Z,77.20
2022-10-11T17:26:11.453Z,77.10
2022-10-11T17:28:39.284Z,77.80
2022-10-11T17:31:08.453Z,78.50
2022-10-11T17:33:36.539Z,78.60
2022-10-11T17:36:16.279Z,78.60
2022-10-11T17:38:43.946Z,79.70
2022-10-11T17:41:11.806Z,79.40
2022-10-11T17:43:39.883Z,80.60
2022-10-11T17:46:09.016Z,81.20
2022-10-11T17:48:39.341Z,82.00
2022-10-11T17:51:09.140Z,82.70
2022-10-11T17:53:37.509Z,83.60
2022-10-11T17:56:17.318Z,83.20
2022-10-11T17:58:47.568Z,82.50
2022-10-11T18:01:18.619Z,81.70
2022-10-11T18:03:57.679Z,81.30
2022-10-11T18:06:29.776Z,79.70
2022-10-11T18:09:00.712Z,79.40
2022-10-11T18:11:30.697Z,80.00
2022-10-11T18:13:59.410Z,79.70
2022-10-11T18:16:29.216Z,80.00
2022-10-11T18:18:58.397Z,79.60
2022-10-11T18:21:33.896Z,80.00
2022-10-11T18:24:08.138Z,80.70
2022-10-11T18:26:35.434Z,82.00
2022-10-11T18:29:03.620Z,81.60
2022-10-11T18:31:34.447Z,80.90
2022-10-11T18:34:04.646Z,81.10
2022-10-11T18:36:33.508Z,80.80
2022-10-11T18:39:05.925Z,80.40
2022-10-11T18:41:35.448Z,79.50
2022-10-11T18:44:06.286Z,79.80
2022-10-11T18:46:34.782Z,80.30
2022-10-11T18:49:02.412Z,80.40
2022-10-11T18:51:34.146Z,79.90
2022-10-11T18:54:02.628Z,80.40
2022-10-11T18:56:31.828Z,80.70
2022-10-11T18:59:01.150Z,80.50
2022-10-11T19:01:44.217Z,82.00
2022-10-11T19:04:13.593Z,83.40
2022-10-11T19:06:44.129Z,85.20
2022-10-11T19:09:12.874Z,86.40
2022-10-11T19:11:42.245Z,86.40
2022-10-11T19:14:15.389Z,86.00
2022-10-11T19:16:51.931Z,85.20
2022-10-11T19:19:21.619Z,84.20
2022-10-11T19:21:49.667Z,83.20
2022-10-11T19:24:20.560Z,83.20
2022-10-11T19:26:48.819Z,83.60
2022-10-11T19:29:19.928Z,82.90
2022-10-11T19:31:49.934Z,83.30
2022-10-11T19:34:17.396Z,83.20
2022-10-11T19:36:45.975Z,83.30
2022-10-11T19:39:18.697Z,83.60
2022-10-11T19:41:47.392Z,83.30
2022-10-11T19:44:15.591Z,83.20
2022-10-11T19:47:02.748Z,83.00
2022-10-11T19:49:30.814Z,83.00
2022-10-11T19:51:58.999Z,83.70
2022-10-11T19:54:27.594Z,84.80
2022-10-11T19:56:54.989Z,84.70
2022-10-11T19:59:22.494Z,85.00
2022-10-11T20:01:52.962Z,84.70
2022-10-11T20:07:09.555Z,84.10
2022-10-11T20:09:36.879Z,83.20
2022-10-11T20:12:04.920Z,82.60
2022-10-11T20:14:32.301Z,83.50
2022-10-11T20:16:59.756Z,84.10
2022-10-11T20:19:31.043Z,84.80
2022-10-11T20:22:00.388Z,84.40
2022-10-11T20:24:33.283Z,86.20
2022-10-11T20:27:04.018Z,86.20
2022-10-11T20:29:31.831Z,85.70
2022-10-11T20:31:59.488Z,85.20
2022-10-11T20:34:28.569Z,83.60
2022-10-11T20:36:56.206Z,84.40
2022-10-11T20:39:23.947Z,86.10
2022-10-11T20:41:51.362Z,86.40
2022-10-11T20:44:18.670Z,86.60
2022-10-11T20:46:45.929Z,86.10
2022-10-11T20:49:13.468Z,85.10
2022-10-11T20:51:42.917Z,84.30
2022-10-11T20:54:11.064Z,83.60
2022-10-11T20:56:40.441Z,82.70
2022-10-11T20:59:08.530Z,83.50
2022-10-11T21:01:38.639Z,84.40
2022-10-11T21:04:07.543Z,84.40
2022-10-11T21:06:34.930Z,83.90
2022-10-11T21:09:02.488Z,84.00
2022-10-11T21:11:33.661Z,85.30
2022-10-11T21:14:03.460Z,85.00
2022-10-11T21:16:31.646Z,84.70
2022-10-11T21:19:00.675Z,85.20
2022-10-11T21:21:30.023Z,86.20
2022-10-11T21:24:00.069Z,85.10
2022-10-11T21:26:28.211Z,87.20
2022-10-11T21:28:55.593Z,87.30
2022-10-11T21:31:24.074Z,87.50
2022-10-11T21:33:51.743Z,86.90
2022-10-11T21:36:20.944Z,87.20
2022-10-11T21:38:48.936Z,86.70
2022-10-11T21:41:19.164Z,85.70
2022-10-11T21:43:47.462Z,84.70
2022-10-11T21:46:20.913Z,84.60
2022-10-11T21:48:50.221Z,84.00
2022-10-11T21:51:29.739Z,83.90
2022-10-11T21:54:00.452Z,83.80
2022-10-11T21:56:30.138Z,83.30
2022-10-11T21:58:58.421Z,82.80
2022-10-11T22:01:26.381Z,82.60
2022-10-11T22:03:54.308Z,82.90
2022-10-11T22:06:22.362Z,83.20
2022-10-11T22:08:50.285Z,85.40
2022-10-11T22:11:17.699Z,87.50
2022-10-11T22:13:45.039Z,87.90
2022-10-11T22:16:14.176Z,86.90
2022-10-11T22:18:42.695Z,87.40
2022-10-11T22:21:14.007Z,87.20
2022-10-11T22:23:43.202Z,87.00
2022-10-11T22:26:14.804Z,86.20
2022-10-11T22:28:42.907Z,85.10
2022-10-11T22:31:17.053Z,85.00
2022-10-11T22:33:46.443Z,86.00
2022-10-11T22:36:16.744Z,86.20
2022-10-11T22:38:44.617Z,85.80
2022-10-11T22:41:12.462Z,85.00
2022-10-11T22:43:40.411Z,84.00
2022-10-11T22:46:08.906Z,84.30
2022-10-11T22:48:36.447Z,84.50
2022-10-11T22:51:03.976Z,84.30
2022-10-11T22:53:32.006Z,85.60
2022-10-11T22:56:00.581Z,86.80
2022-10-11T22:58:28.496Z,86.70
2022-10-11T23:00:59.018Z,86.10
2022-10-11T23:03:28.853Z,86.20
2022-10-11T23:05:58.737Z,85.60
2022-10-11T23:08:26.353Z,84.40
2022-10-11T23:10:54.137Z,83.10
2022-10-11T23:13:21.618Z,83.00
2022-10-11T23:15:49.330Z,83.50
2022-10-11T23:18:17.637Z,85.20
2022-10-11T23:20:45.240Z,85.90
2022-10-11T23:23:12.612Z,86.50
2022-10-11T23:25:39.951Z,87.20
2022-10-11T23:28:07.318Z,87.80
2022-10-11T23:30:36.651Z,88.20
2022-10-11T23:33:05.412Z,88.80
2022-10-11T23:35:34.866Z,88.80
2022-10-11T23:38:02.250Z,87.70
2022-10-11T23:40:30.013Z,87.10
2022-10-11T23:42:58.229Z,84.70
2022-10-11T23:45:29.523Z,84.80
2022-10-11T23:47:57.394Z,87.80
2022-10-11T23:50:25.160Z,89.40
2022-10-11T23:52:52.524Z,91.10
2022-10-11T23:55:19.820Z,91.60
2022-10-11T23:57:47.431Z,92.20
